sensor_id;sensor_type;location;lat;lon;timestamp;P1;durP1;ratioP1;P2;durP2;ratioP2
19189;SDS011;9727;50.200;19.038;2023-09-30T00:00:00;30.37;;;19.00;;
19189;SDS011;9727;50.200;19.038;2023-09-30T00:02:27;24.90;;;17.50;;
19189;SDS011;9727;50.200;19.038;2023-09-30T00:04:55;28.17;;;17.47;;
19189;SDS011;9727;50.200;19.038;2023-09-30T00:07:22;26.20;;;17.83;;
19189;SDS011;9727;50.200;19.038;2023-09-30T00:09:48;25.93;;;18.93;;
19189;SDS011;9727;50.200;19.038;2023-09-30T00:12:16;26.93;;;18.50;;
19189;SDS011;9727;50.200;19.038;2023-09-30T00:14:45;22.73;;;17.30;;
19189;SDS011;9727;50.200;19.038;2023-09-30T00:17:13;26.67;;;17.90;;
19189;SDS011;9727;50.200;19.038;2023-09-30T00:19:40;29.23;;;18.03;;
19189;SDS011;9727;50.200;19.038;2023-09-30T00:22:07;24.03;;;17.70;;
19189;SDS011;9727;50.200;19.038;2023-09-30T00:24:33;28.73;;;18.10;;
19189;SDS011;9727;50.200;19.038;2023-09-30T00:27:00;27.67;;;18.67;;
19189;SDS011;9727;50.200;19.038;2023-09-30T00:29:26;30.30;;;17.93;;
19189;SDS011;9727;50.200;19.038;2023-09-30T00:31:54;25.53;;;17.83;;
19189;SDS011;9727;50.200;19.038;2023-09-30T00:34:21;23.30;;;17.60;;
19189;SDS011;9727;50.200;19.038;2023-09-30T00:36:47;24.03;;;17.33;;
19189;SDS011;9727;50.200;19.038;2023-09-30T00:39:14;26.93;;;17.87;;
19189;SDS011;9727;50.200;19.038;2023-09-30T00:41:40;22.67;;;17.17;;
19189;SDS011;9727;50.200;19.038;2023-09-30T00:44:07;28.73;;;18.17;;
19189;SDS011;9727;50.200;19.038;2023-09-30T00:46:35;26.17;;;17.87;;
19189;SDS011;9727;50.200;19.038;2023-09-30T00:49:05;26.13;;;17.37;;
19189;SDS011;9727;50.200;19.038;2023-09-30T00:51:31;24.17;;;16.67;;
19189;SDS011;9727;50.200;19.038;2023-09-30T00:53:59;24.17;;;16.70;;
19189;SDS011;9727;50.200;19.038;2023-09-30T00:56:27;22.60;;;15.73;;
19189;SDS011;9727;50.200;19.038;2023-09-30T00:58:53;22.73;;;16.20;;
19189;SDS011;9727;50.200;19.038;2023-09-30T01:01:20;26.23;;;16.10;;
19189;SDS011;9727;50.200;19.038;2023-09-30T01:03:47;24.17;;;15.53;;
19189;SDS011;9727;50.200;19.038;2023-09-30T01:06:15;21.17;;;15.70;;
19189;SDS011;9727;50.200;19.038;2023-09-30T01:08:48;22.47;;;15.53;;
19189;SDS011;9727;50.200;19.038;2023-09-30T01:11:15;24.37;;;16.40;;
19189;SDS011;9727;50.200;19.038;2023-09-30T01:13:42;25.00;;;15.30;;
19189;SDS011;9727;50.200;19.038;2023-09-30T01:16:10;18.27;;;14.40;;
19189;SDS011;9727;50.200;19.038;2023-09-30T01:18:37;23.53;;;15.10;;
19189;SDS011;9727;50.200;19.038;2023-09-30T01:21:04;22.80;;;15.57;;
19189;SDS011;9727;50.200;19.038;2023-09-30T01:23:33;22.47;;;15.43;;
19189;SDS011;9727;50.200;19.038;2023-09-30T01:26:01;20.60;;;14.97;;
19189;SDS011;9727;50.200;19.038;2023-09-30T01:28:28;25.13;;;16.13;;
19189;SDS011;9727;50.200;19.038;2023-09-30T01:30:55;19.30;;;14.53;;
19189;SDS011;9727;50.200;19.038;2023-09-30T01:33:22;25.77;;;14.77;;
19189;SDS011;9727;50.200;19.038;2023-09-30T01:35:48;22.23;;;14.60;;
19189;SDS011;9727;50.200;19.038;2023-09-30T01:38:15;24.80;;;14.00;;
19189;SDS011;9727;50.200;19.038;2023-09-30T01:40:43;21.43;;;15.43;;
19189;SDS011;9727;50.200;19.038;2023-09-30T01:43:10;21.67;;;14.30;;
19189;SDS011;9727;50.200;19.038;2023-09-30T01:45:38;21.47;;;14.53;;
19189;SDS011;9727;50.200;19.038;2023-09-30T01:48:05;19.97;;;13.93;;
19189;SDS011;9727;50.200;19.038;2023-09-30T01:50:32;21.03;;;13.73;;
19189;SDS011;9727;50.200;19.038;2023-09-30T01:52:59;22.13;;;15.07;;
19189;SDS011;9727;50.200;19.038;2023-09-30T01:55:26;25.57;;;14.70;;
19189;SDS011;9727;50.200;19.038;2023-09-30T01:57:54;21.27;;;13.83;;
19189;SDS011;9727;50.200;19.038;2023-09-30T02:00:20;17.97;;;13.80;;
19189;SDS011;9727;50.200;19.038;2023-09-30T02:02:49;21.93;;;14.17;;
19189;SDS011;9727;50.200;19.038;2023-09-30T02:05:16;19.10;;;13.57;;
19189;SDS011;9727;50.200;19.038;2023-09-30T02:07:44;23.97;;;14.07;;
19189;SDS011;9727;50.200;19.038;2023-09-30T02:10:10;21.07;;;12.77;;
19189;SDS011;9727;50.200;19.038;2023-09-30T02:12:37;18.97;;;12.33;;
19189;SDS011;9727;50.200;19.038;2023-09-30T02:15:06;17.57;;;12.43;;
19189;SDS011;9727;50.200;19.038;2023-09-30T02:17:33;18.07;;;12.30;;
19189;SDS011;9727;50.200;19.038;2023-09-30T02:19:59;16.87;;;11.47;;
19189;SDS011;9727;50.200;19.038;2023-09-30T02:22:31;19.20;;;11.67;;
19189;SDS011;9727;50.200;19.038;2023-09-30T02:24:58;15.57;;;11.63;;
19189;SDS011;9727;50.200;19.038;2023-09-30T02:27:24;15.60;;;11.73;;
19189;SDS011;9727;50.200;19.038;2023-09-30T02:29:51;13.97;;;11.47;;
19189;SDS011;9727;50.200;19.038;2023-09-30T02:32:19;16.63;;;12.10;;
19189;SDS011;9727;50.200;19.038;2023-09-30T02:34:45;17.63;;;11.60;;
19189;SDS011;9727;50.200;19.038;2023-09-30T02:37:12;15.47;;;11.03;;
19189;SDS011;9727;50.200;19.038;2023-09-30T02:39:40;17.67;;;11.80;;
19189;SDS011;9727;50.200;19.038;2023-09-30T02:42:07;14.13;;;10.67;;
19189;SDS011;9727;50.200;19.038;2023-09-30T02:44:34;17.87;;;10.77;;
19189;SDS011;9727;50.200;19.038;2023-09-30T02:47:00;14.70;;;10.80;;
19189;SDS011;9727;50.200;19.038;2023-09-30T02:49:30;13.27;;;10.47;;
19189;SDS011;9727;50.200;19.038;2023-09-30T02:51:59;15.53;;;10.17;;
19189;SDS011;9727;50.200;19.038;2023-09-30T02:54:25;13.63;;;10.00;;
19189;SDS011;9727;50.200;19.038;2023-09-30T02:56:53;17.60;;;10.97;;
19189;SDS011;9727;50.200;19.038;2023-09-30T02:59:20;13.47;;;9.00;;
19189;SDS011;9727;50.200;19.038;2023-09-30T03:01:47;14.53;;;9.70;;
19189;SDS011;9727;50.200;19.038;2023-09-30T03:04:14;11.70;;;9.30;;
19189;SDS011;9727;50.200;19.038;2023-09-30T03:06:45;10.53;;;8.70;;
19189;SDS011;9727;50.200;19.038;2023-09-30T03:09:13;12.87;;;8.67;;
19189;SDS011;9727;50.200;19.038;2023-09-30T03:11:40;13.27;;;9.00;;
19189;SDS011;9727;50.200;19.038;2023-09-30T03:14:08;13.77;;;9.43;;
19189;SDS011;9727;50.200;19.038;2023-09-30T03:16:35;16.87;;;9.33;;
19189;SDS011;9727;50.200;19.038;2023-09-30T03:19:05;12.03;;;9.37;;
19189;SDS011;9727;50.200;19.038;2023-09-30T03:21:34;16.10;;;10.00;;
19189;SDS011;9727;50.200;19.038;2023-09-30T03:24:03;13.17;;;9.20;;
19189;SDS011;9727;50.200;19.038;2023-09-30T03:26:31;12.47;;;8.90;;
19189;SDS011;9727;50.200;19.038;2023-09-30T03:28:59;11.23;;;8.63;;
19189;SDS011;9727;50.200;19.038;2023-09-30T03:31:26;14.50;;;9.30;;
19189;SDS011;9727;50.200;19.038;2023-09-30T03:33:52;10.37;;;8.87;;
19189;SDS011;9727;50.200;19.038;2023-09-30T03:36:19;11.57;;;9.07;;
19189;SDS011;9727;50.200;19.038;2023-09-30T03:38:47;13.13;;;9.43;;
19189;SDS011;9727;50.200;19.038;2023-09-30T03:41:15;17.33;;;9.90;;
19189;SDS011;9727;50.200;19.038;2023-09-30T03:43:44;13.17;;;9.73;;
19189;SDS011;9727;50.200;19.038;2023-09-30T03:46:12;13.17;;;9.10;;
19189;SDS011;9727;50.200;19.038;2023-09-30T03:48:40;13.00;;;9.40;;
19189;SDS011;9727;50.200;19.038;2023-09-30T03:51:09;13.87;;;9.47;;
19189;SDS011;9727;50.200;19.038;2023-09-30T03:53:39;15.63;;;9.73;;
19189;SDS011;9727;50.200;19.038;2023-09-30T03:56:05;15.30;;;9.37;;
19189;SDS011;9727;50.200;19.038;2023-09-30T03:58:34;18.43;;;10.00;;
19189;SDS011;9727;50.200;19.038;2023-09-30T04:01:03;18.03;;;10.03;;
19189;SDS011;9727;50.200;19.038;2023-09-30T04:03:30;14.80;;;9.50;;
19189;SDS011;9727;50.200;19.038;2023-09-30T04:05:58;13.60;;;9.87;;
19189;SDS011;9727;50.200;19.038;2023-09-30T04:08:25;13.07;;;9.67;;
19189;SDS011;9727;50.200;19.038;2023-09-30T04:10:51;14.87;;;9.70;;
19189;SDS011;9727;50.200;19.038;2023-09-30T04:13:19;16.63;;;9.63;;
19189;SDS011;9727;50.200;19.038;2023-09-30T04:15:48;11.67;;;9.77;;
19189;SDS011;9727;50.200;19.038;2023-09-30T04:18:14;17.77;;;9.97;;
19189;SDS011;9727;50.200;19.038;2023-09-30T04:20:41;14.60;;;9.97;;
19189;SDS011;9727;50.200;19.038;2023-09-30T04:23:07;14.27;;;10.30;;
19189;SDS011;9727;50.200;19.038;2023-09-30T04:25:35;15.80;;;9.40;;
19189;SDS011;9727;50.200;19.038;2023-09-30T04:28:02;14.60;;;9.77;;
19189;SDS011;9727;50.200;19.038;2023-09-30T04:30:29;15.63;;;10.00;;
19189;SDS011;9727;50.200;19.038;2023-09-30T04:32:59;14.13;;;10.10;;
19189;SDS011;9727;50.200;19.038;2023-09-30T04:35:26;16.80;;;9.93;;
19189;SDS011;9727;50.200;19.038;2023-09-30T04:37:54;16.57;;;9.67;;
19189;SDS011;9727;50.200;19.038;2023-09-30T04:40:22;14.73;;;10.20;;
19189;SDS011;9727;50.200;19.038;2023-09-30T04:42:49;14.90;;;10.17;;
19189;SDS011;9727;50.200;19.038;2023-09-30T04:45:15;16.63;;;10.57;;
19189;SDS011;9727;50.200;19.038;2023-09-30T04:47:45;14.77;;;10.87;;
19189;SDS011;9727;50.200;19.038;2023-09-30T04:50:15;17.07;;;10.70;;
19189;SDS011;9727;50.200;19.038;2023-09-30T04:52:42;13.00;;;10.17;;
19189;SDS011;9727;50.200;19.038;2023-09-30T04:55:09;14.83;;;10.27;;
19189;SDS011;9727;50.200;19.038;2023-09-30T04:57:37;14.37;;;10.00;;
19189;SDS011;9727;50.200;19.038;2023-09-30T05:00:04;14.73;;;10.07;;
19189;SDS011;9727;50.200;19.038;2023-09-30T05:02:38;18.10;;;10.03;;
19189;SDS011;9727;50.200;19.038;2023-09-30T05:05:04;15.53;;;10.20;;
19189;SDS011;9727;50.200;19.038;2023-09-30T05:07:33;14.27;;;11.13;;
19189;SDS011;9727;50.200;19.038;2023-09-30T05:09:59;16.07;;;11.03;;
19189;SDS011;9727;50.200;19.038;2023-09-30T05:12:30;15.40;;;10.23;;
19189;SDS011;9727;50.200;19.038;2023-09-30T05:14:56;16.50;;;11.17;;
19189;SDS011;9727;50.200;19.038;2023-09-30T05:17:23;13.90;;;10.40;;
19189;SDS011;9727;50.200;19.038;2023-09-30T05:19:49;13.13;;;10.00;;
19189;SDS011;9727;50.200;19.038;2023-09-30T05:22:16;15.93;;;11.03;;
19189;SDS011;9727;50.200;19.038;2023-09-30T05:24:48;15.80;;;10.60;;
19189;SDS011;9727;50.200;19.038;2023-09-30T05:27:14;13.60;;;10.23;;
19189;SDS011;9727;50.200;19.038;2023-09-30T05:29:42;15.57;;;10.77;;
19189;SDS011;9727;50.200;19.038;2023-09-30T05:32:08;15.97;;;10.40;;
19189;SDS011;9727;50.200;19.038;2023-09-30T05:34:36;15.90;;;10.87;;
19189;SDS011;9727;50.200;19.038;2023-09-30T05:37:04;14.70;;;11.60;;
19189;SDS011;9727;50.200;19.038;2023-09-30T05:39:31;15.53;;;11.40;;
19189;SDS011;9727;50.200;19.038;2023-09-30T05:41:59;14.23;;;10.43;;
19189;SDS011;9727;50.200;19.038;2023-09-30T05:44:26;14.83;;;10.70;;
19189;SDS011;9727;50.200;19.038;2023-09-30T05:46:53;14.40;;;10.90;;
19189;SDS011;9727;50.200;19.038;2023-09-30T05:49:19;13.93;;;11.00;;
19189;SDS011;9727;50.200;19.038;2023-09-30T05:51:46;15.00;;;10.63;;
19189;SDS011;9727;50.200;19.038;2023-09-30T05:54:14;15.30;;;10.67;;
19189;SDS011;9727;50.200;19.038;2023-09-30T05:56:40;17.53;;;10.83;;
19189;SDS011;9727;50.200;19.038;2023-09-30T05:59:09;16.90;;;11.70;;
19189;SDS011;9727;50.200;19.038;2023-09-30T06:01:36;14.33;;;10.97;;
19189;SDS011;9727;50.200;19.038;2023-09-30T06:04:04;17.07;;;11.27;;
19189;SDS011;9727;50.200;19.038;2023-09-30T06:06:32;15.67;;;11.53;;
19189;SDS011;9727;50.200;19.038;2023-09-30T06:08:59;15.47;;;11.73;;
19189;SDS011;9727;50.200;19.038;2023-09-30T06:11:28;14.43;;;11.13;;
19189;SDS011;9727;50.200;19.038;2023-09-30T06:13:55;15.50;;;11.17;;
19189;SDS011;9727;50.200;19.038;2023-09-30T06:16:26;19.53;;;11.70;;
19189;SDS011;9727;50.200;19.038;2023-09-30T06:18:53;15.87;;;11.57;;
19189;SDS011;9727;50.200;19.038;2023-09-30T06:21:20;16.27;;;11.63;;
19189;SDS011;9727;50.200;19.038;2023-09-30T06:23:47;16.47;;;11.80;;
19189;SDS011;9727;50.200;19.038;2023-09-30T06:26:13;16.37;;;10.60;;
19189;SDS011;9727;50.200;19.038;2023-09-30T06:28:41;15.00;;;11.03;;
19189;SDS011;9727;50.200;19.038;2023-09-30T06:31:07;14.17;;;11.17;;
19189;SDS011;9727;50.200;19.038;2023-09-30T06:33:35;14.33;;;10.80;;
19189;SDS011;9727;50.200;19.038;2023-09-30T06:36:07;16.53;;;11.27;;
19189;SDS011;9727;50.200;19.038;2023-09-30T06:38:34;12.47;;;10.13;;
19189;SDS011;9727;50.200;19.038;2023-09-30T06:41:02;13.87;;;10.43;;
19189;SDS011;9727;50.200;19.038;2023-09-30T06:43:29;11.90;;;10.13;;
19189;SDS011;9727;50.200;19.038;2023-09-30T06:45:55;13.37;;;10.00;;
19189;SDS011;9727;50.200;19.038;2023-09-30T06:48:22;12.43;;;9.67;;
19189;SDS011;9727;50.200;19.038;2023-09-30T06:50:50;13.73;;;9.80;;
19189;SDS011;9727;50.200;19.038;2023-09-30T06:53:19;13.13;;;9.73;;
19189;SDS011;9727;50.200;19.038;2023-09-30T06:55:47;14.93;;;10.17;;
19189;SDS011;9727;50.200;19.038;2023-09-30T06:58:14;13.73;;;10.10;;
19189;SDS011;9727;50.200;19.038;2023-09-30T07:00:46;12.33;;;9.87;;
19189;SDS011;9727;50.200;19.038;2023-09-30T07:03:12;15.80;;;10.60;;
19189;SDS011;9727;50.200;19.038;2023-09-30T07:05:40;13.23;;;9.97;;
19189;SDS011;9727;50.200;19.038;2023-09-30T07:08:09;12.40;;;10.27;;
19189;SDS011;9727;50.200;19.038;2023-09-30T07:10:35;13.77;;;10.30;;
19189;SDS011;9727;50.200;19.038;2023-09-30T07:13:02;12.43;;;9.83;;
19189;SDS011;9727;50.200;19.038;2023-09-30T07:15:29;13.23;;;9.40;;
19189;SDS011;9727;50.200;19.038;2023-09-30T07:17:57;13.30;;;9.17;;
19189;SDS011;9727;50.200;19.038;2023-09-30T07:20:24;16.15;;;9.95;;
19189;SDS011;9727;50.200;19.038;2023-09-30T07:22:52;13.63;;;9.47;;
19189;SDS011;9727;50.200;19.038;2023-09-30T07:25:20;14.57;;;10.30;;
19189;SDS011;9727;50.200;19.038;2023-09-30T07:27:47;12.90;;;9.77;;
19189;SDS011;9727;50.200;19.038;2023-09-30T07:30:14;13.00;;;10.10;;
19189;SDS011;9727;50.200;19.038;2023-09-30T07:32:41;12.57;;;10.50;;
19189;SDS011;9727;50.200;19.038;2023-09-30T07:35:08;15.97;;;10.13;;
19189;SDS011;9727;50.200;19.038;2023-09-30T07:37:35;14.23;;;10.23;;
19189;SDS011;9727;50.200;19.038;2023-09-30T07:40:02;12.30;;;9.70;;
19189;SDS011;9727;50.200;19.038;2023-09-30T07:42:31;16.13;;;11.03;;
19189;SDS011;9727;50.200;19.038;2023-09-30T07:45:00;13.70;;;9.43;;
19189;SDS011;9727;50.200;19.038;2023-09-30T07:47:28;11.88;;;9.98;;
19189;SDS011;9727;50.200;19.038;2023-09-30T07:49:55;14.20;;;10.35;;
19189;SDS011;9727;50.200;19.038;2023-09-30T07:52:22;16.30;;;10.57;;
19189;SDS011;9727;50.200;19.038;2023-09-30T07:54:49;13.23;;;10.77;;
19189;SDS011;9727;50.200;19.038;2023-09-30T07:57:16;12.10;;;10.00;;
19189;SDS011;9727;50.200;19.038;2023-09-30T07:59:44;12.43;;;9.97;;
19189;SDS011;9727;50.200;19.038;2023-09-30T08:02:12;11.95;;;10.15;;
19189;SDS011;9727;50.200;19.038;2023-09-30T08:04:38;14.50;;;10.43;;
19189;SDS011;9727;50.200;19.038;2023-09-30T08:07:05;14.75;;;10.95;;
19189;SDS011;9727;50.200;19.038;2023-09-30T08:09:32;12.65;;;10.57;;
19189;SDS011;9727;50.200;19.038;2023-09-30T08:11:59;16.25;;;11.05;;
19189;SDS011;9727;50.200;19.038;2023-09-30T08:14:26;14.57;;;10.70;;
19189;SDS011;9727;50.200;19.038;2023-09-30T08:16:54;15.67;;;11.13;;
19189;SDS011;9727;50.200;19.038;2023-09-30T08:19:21;12.50;;;10.87;;
19189;SDS011;9727;50.200;19.038;2023-09-30T08:21:48;15.93;;;11.10;;
19189;SDS011;9727;50.200;19.038;2023-09-30T08:24:16;16.13;;;11.00;;
19189;SDS011;9727;50.200;19.038;2023-09-30T08:26:43;13.65;;;11.25;;
19189;SDS011;9727;50.200;19.038;2023-09-30T08:29:09;14.70;;;11.32;;
19189;SDS011;9727;50.200;19.038;2023-09-30T08:31:36;16.65;;;10.90;;
19189;SDS011;9727;50.200;19.038;2023-09-30T08:34:04;16.67;;;11.20;;
19189;SDS011;9727;50.200;19.038;2023-09-30T08:36:30;14.68;;;12.02;;
19189;SDS011;9727;50.200;19.038;2023-09-30T08:38:58;18.73;;;12.63;;
19189;SDS011;9727;50.200;19.038;2023-09-30T08:41:27;16.70;;;12.73;;
19189;SDS011;9727;50.200;19.038;2023-09-30T08:43:59;12.80;;;11.35;;
19189;SDS011;9727;50.200;19.038;2023-09-30T08:46:26;16.40;;;12.10;;
19189;SDS011;9727;50.200;19.038;2023-09-30T08:48:56;15.07;;;11.93;;
19189;SDS011;9727;50.200;19.038;2023-09-30T08:51:25;17.60;;;12.37;;
19189;SDS011;9727;50.200;19.038;2023-09-30T08:53:52;15.38;;;11.98;;
19189;SDS011;9727;50.200;19.038;2023-09-30T08:56:20;16.45;;;12.70;;
19189;SDS011;9727;50.200;19.038;2023-09-30T08:58:49;17.95;;;13.35;;
19189;SDS011;9727;50.200;19.038;2023-09-30T09:01:16;17.05;;;14.13;;
19189;SDS011;9727;50.200;19.038;2023-09-30T09:03:43;16.35;;;13.68;;
19189;SDS011;9727;50.200;19.038;2023-09-30T09:06:12;17.05;;;14.88;;
19189;SDS011;9727;50.200;19.038;2023-09-30T09:08:40;18.42;;;13.43;;
19189;SDS011;9727;50.200;19.038;2023-09-30T09:11:07;16.77;;;14.27;;
19189;SDS011;9727;50.200;19.038;2023-09-30T09:13:44;20.67;;;14.35;;
19189;SDS011;9727;50.200;19.038;2023-09-30T09:16:11;19.48;;;15.43;;
19189;SDS011;9727;50.200;19.038;2023-09-30T09:18:38;18.70;;;14.30;;
19189;SDS011;9727;50.200;19.038;2023-09-30T09:21:09;18.70;;;14.18;;
19189;SDS011;9727;50.200;19.038;2023-09-30T09:23:41;24.13;;;18.70;;
19189;SDS011;9727;50.200;19.038;2023-09-30T09:26:09;23.80;;;17.65;;
19189;SDS011;9727;50.200;19.038;2023-09-30T09:28:36;23.93;;;18.00;;
19189;SDS011;9727;50.200;19.038;2023-09-30T09:33:46;26.57;;;18.73;;
19189;SDS011;9727;50.200;19.038;2023-09-30T09:36:12;24.03;;;19.97;;
19189;SDS011;9727;50.200;19.038;2023-09-30T09:38:47;25.25;;;19.55;;
19189;SDS011;9727;50.200;19.038;2023-09-30T09:41:17;21.45;;;18.73;;
19189;SDS011;9727;50.200;19.038;2023-09-30T09:43:43;25.00;;;20.27;;
19189;SDS011;9727;50.200;19.038;2023-09-30T09:46:10;23.90;;;18.70;;
19189;SDS011;9727;50.200;19.038;2023-09-30T09:48:39;28.02;;;20.42;;
19189;SDS011;9727;50.200;19.038;2023-09-30T09:51:05;24.23;;;20.15;;
19189;SDS011;9727;50.200;19.038;2023-09-30T09:53:34;24.80;;;20.50;;
19189;SDS011;9727;50.200;19.038;2023-09-30T09:56:03;25.97;;;20.77;;
19189;SDS011;9727;50.200;19.038;2023-09-30T09:58:32;25.67;;;20.40;;
19189;SDS011;9727;50.200;19.038;2023-09-30T10:00:59;27.77;;;20.92;;
19189;SDS011;9727;50.200;19.038;2023-09-30T10:03:26;24.85;;;20.73;;
19189;SDS011;9727;50.200;19.038;2023-09-30T10:05:53;24.48;;;20.75;;
19189;SDS011;9727;50.200;19.038;2023-09-30T10:08:21;23.80;;;19.98;;
19189;SDS011;9727;50.200;19.038;2023-09-30T10:10:55;24.15;;;19.85;;
19189;SDS011;9727;50.200;19.038;2023-09-30T10:19:10;20.80;;;18.60;;
19189;SDS011;9727;50.200;19.038;2023-09-30T10:21:38;20.90;;;17.45;;
19189;SDS011;9727;50.200;19.038;2023-09-30T10:29:39;20.42;;;17.02;;
19189;SDS011;9727;50.200;19.038;2023-09-30T10:32:06;19.27;;;17.27;;
19189;SDS011;9727;50.200;19.038;2023-09-30T10:34:34;19.35;;;17.27;;
19189;SDS011;9727;50.200;19.038;2023-09-30T10:39:52;18.42;;;16.38;;
19189;SDS011;9727;50.200;19.038;2023-09-30T10:45:01;19.42;;;16.48;;
19189;SDS011;9727;50.200;19.038;2023-09-30T10:47:35;20.70;;;16.25;;
19189;SDS011;9727;50.200;19.038;2023-09-30T10:50:04;19.95;;;16.40;;
19189;SDS011;9727;50.200;19.038;2023-09-30T10:52:51;19.17;;;16.73;;
19189;SDS011;9727;50.200;19.038;2023-09-30T10:55:19;20.60;;;16.75;;
19189;SDS011;9727;50.200;19.038;2023-09-30T10:57:45;19.17;;;16.42;;
19189;SDS011;9727;50.200;19.038;2023-09-30T11:00:17;18.05;;;14.85;;
19189;SDS011;9727;50.200;19.038;2023-09-30T11:02:50;21.83;;;15.95;;
19189;SDS011;9727;50.200;19.038;2023-09-30T11:05:22;20.27;;;16.43;;
19189;SDS011;9727;50.200;19.038;2023-09-30T11:07:49;19.38;;;16.35;;
19189;SDS011;9727;50.200;19.038;2023-09-30T11:10:16;19.45;;;15.73;;
19189;SDS011;9727;50.200;19.038;2023-09-30T11:12:53;18.30;;;15.43;;
19189;SDS011;9727;50.200;19.038;2023-09-30T11:15:19;18.45;;;13.90;;
19189;SDS011;9727;50.200;19.038;2023-09-30T11:17:46;16.60;;;14.10;;
19189;SDS011;9727;50.200;19.038;2023-09-30T11:20:13;18.83;;;13.95;;
19189;SDS011;9727;50.200;19.038;2023-09-30T11:22:41;18.30;;;14.27;;
19189;SDS011;9727;50.200;19.038;2023-09-30T11:25:15;19.20;;;14.23;;
19189;SDS011;9727;50.200;19.038;2023-09-30T11:27:42;17.17;;;14.27;;
19189;SDS011;9727;50.200;19.038;2023-09-30T11:30:10;17.30;;;13.07;;
19189;SDS011;9727;50.200;19.038;2023-09-30T11:32:37;15.70;;;12.97;;
19189;SDS011;9727;50.200;19.038;2023-09-30T11:35:05;18.83;;;13.73;;
19189;SDS011;9727;50.200;19.038;2023-09-30T11:37:34;17.37;;;11.27;;
19189;SDS011;9727;50.200;19.038;2023-09-30T11:40:10;13.40;;;10.40;;
19189;SDS011;9727;50.200;19.038;2023-09-30T11:42:38;12.53;;;9.67;;
19189;SDS011;9727;50.200;19.038;2023-09-30T11:45:18;11.93;;;8.50;;
19189;SDS011;9727;50.200;19.038;2023-09-30T11:47:45;13.00;;;9.43;;
19189;SDS011;9727;50.200;19.038;2023-09-30T11:50:13;12.70;;;8.80;;
19189;SDS011;9727;50.200;19.038;2023-09-30T11:52:43;10.20;;;7.90;;
19189;SDS011;9727;50.200;19.038;2023-09-30T11:55:12;17.53;;;8.60;;
19189;SDS011;9727;50.200;19.038;2023-09-30T11:57:41;12.17;;;8.00;;
19189;SDS011;9727;50.200;19.038;2023-09-30T12:00:08;13.17;;;8.27;;
19189;SDS011;9727;50.200;19.038;2023-09-30T12:02:39;13.63;;;7.30;;
19189;SDS011;9727;50.200;19.038;2023-09-30T12:05:07;15.47;;;8.20;;
19189;SDS011;9727;50.200;19.038;2023-09-30T12:07:39;11.60;;;7.70;;
19189;SDS011;9727;50.200;19.038;2023-09-30T12:10:07;13.23;;;7.47;;
19189;SDS011;9727;50.200;19.038;2023-09-30T12:12:36;14.37;;;8.23;;
19189;SDS011;9727;50.200;19.038;2023-09-30T12:15:05;14.47;;;9.60;;
19189;SDS011;9727;50.200;19.038;2023-09-30T12:17:34;21.57;;;8.97;;
19189;SDS011;9727;50.200;19.038;2023-09-30T12:20:02;15.40;;;9.77;;
19189;SDS011;9727;50.200;19.038;2023-09-30T12:22:31;14.40;;;10.23;;
19189;SDS011;9727;50.200;19.038;2023-09-30T12:24:59;16.53;;;11.23;;
19189;SDS011;9727;50.200;19.038;2023-09-30T12:27:27;22.37;;;12.33;;
19189;SDS011;9727;50.200;19.038;2023-09-30T12:29:55;19.10;;;11.77;;
19189;SDS011;9727;50.200;19.038;2023-09-30T12:32:22;14.53;;;10.90;;
19189;SDS011;9727;50.200;19.038;2023-09-30T12:34:49;16.47;;;11.33;;
19189;SDS011;9727;50.200;19.038;2023-09-30T12:37:16;14.87;;;10.30;;
19189;SDS011;9727;50.200;19.038;2023-09-30T12:39:43;17.83;;;10.50;;
19189;SDS011;9727;50.200;19.038;2023-09-30T12:42:10;14.67;;;10.97;;
19189;SDS011;9727;50.200;19.038;2023-09-30T12:44:37;18.47;;;11.27;;
19189;SDS011;9727;50.200;19.038;2023-09-30T12:47:05;13.57;;;10.07;;
19189;SDS011;9727;50.200;19.038;2023-09-30T12:49:33;15.77;;;9.97;;
19189;SDS011;9727;50.200;19.038;2023-09-30T12:51:59;15.80;;;9.97;;
19189;SDS011;9727;50.200;19.038;2023-09-30T12:54:26;14.77;;;10.20;;
19189;SDS011;9727;50.200;19.038;2023-09-30T12:56:54;18.00;;;10.83;;
19189;SDS011;9727;50.200;19.038;2023-09-30T12:59:21;17.53;;;11.10;;
19189;SDS011;9727;50.200;19.038;2023-09-30T13:01:50;22.13;;;12.27;;
19189;SDS011;9727;50.200;19.038;2023-09-30T13:04:18;18.93;;;11.73;;
19189;SDS011;9727;50.200;19.038;2023-09-30T13:06:45;18.40;;;11.93;;
19189;SDS011;9727;50.200;19.038;2023-09-30T13:09:14;15.30;;;10.53;;
19189;SDS011;9727;50.200;19.038;2023-09-30T13:11:42;15.10;;;10.17;;
19189;SDS011;9727;50.200;19.038;2023-09-30T13:14:08;13.20;;;9.57;;
19189;SDS011;9727;50.200;19.038;2023-09-30T13:16:36;16.57;;;9.03;;
19189;SDS011;9727;50.200;19.038;2023-09-30T13:19:03;15.67;;;8.73;;
19189;SDS011;9727;50.200;19.038;2023-09-30T13:21:31;13.73;;;7.73;;
19189;SDS011;9727;50.200;19.038;2023-09-30T13:23:58;14.40;;;7.43;;
19189;SDS011;9727;50.200;19.038;2023-09-30T13:26:25;11.33;;;7.20;;
19189;SDS011;9727;50.200;19.038;2023-09-30T13:28:51;10.90;;;6.93;;
19189;SDS011;9727;50.200;19.038;2023-09-30T13:31:19;10.60;;;6.40;;
19189;SDS011;9727;50.200;19.038;2023-09-30T13:33:45;10.37;;;6.20;;
19189;SDS011;9727;50.200;19.038;2023-09-30T13:36:12;11.03;;;6.40;;
19189;SDS011;9727;50.200;19.038;2023-09-30T13:38:41;16.00;;;6.77;;
19189;SDS011;9727;50.200;19.038;2023-09-30T13:41:08;12.57;;;6.53;;
19189;SDS011;9727;50.200;19.038;2023-09-30T13:43:35;15.17;;;7.40;;
19189;SDS011;9727;50.200;19.038;2023-09-30T13:46:03;17.53;;;7.40;;
19189;SDS011;9727;50.200;19.038;2023-09-30T13:48:31;20.60;;;7.90;;
19189;SDS011;9727;50.200;19.038;2023-09-30T13:51:03;13.73;;;7.73;;
19189;SDS011;9727;50.200;19.038;2023-09-30T13:53:30;13.13;;;7.70;;
19189;SDS011;9727;50.200;19.038;2023-09-30T13:55:58;11.33;;;7.03;;
19189;SDS011;9727;50.200;19.038;2023-09-30T13:58:25;11.37;;;7.40;;
19189;SDS011;9727;50.200;19.038;2023-09-30T14:00:51;11.47;;;7.50;;
19189;SDS011;9727;50.200;19.038;2023-09-30T14:03:18;10.00;;;7.33;;
19189;SDS011;9727;50.200;19.038;2023-09-30T14:05:45;12.77;;;7.63;;
19189;SDS011;9727;50.200;19.038;2023-09-30T14:08:12;12.30;;;7.27;;
19189;SDS011;9727;50.200;19.038;2023-09-30T14:10:38;10.53;;;7.10;;
19189;SDS011;9727;50.200;19.038;2023-09-30T14:13:06;11.17;;;7.47;;
19189;SDS011;9727;50.200;19.038;2023-09-30T14:15:33;13.97;;;7.63;;
19189;SDS011;9727;50.200;19.038;2023-09-30T14:18:00;11.23;;;6.97;;
19189;SDS011;9727;50.200;19.038;2023-09-30T14:20:27;16.07;;;6.53;;
19189;SDS011;9727;50.200;19.038;2023-09-30T14:22:54;13.35;;;7.20;;
19189;SDS011;9727;50.200;19.038;2023-09-30T14:25:21;9.10;;;6.63;;
19189;SDS011;9727;50.200;19.038;2023-09-30T14:27:48;11.85;;;7.03;;
19189;SDS011;9727;50.200;19.038;2023-09-30T14:30:16;10.45;;;7.05;;
19189;SDS011;9727;50.200;19.038;2023-09-30T14:32:42;13.43;;;6.97;;
19189;SDS011;9727;50.200;19.038;2023-09-30T14:35:09;9.20;;;6.20;;
19189;SDS011;9727;50.200;19.038;2023-09-30T14:37:35;9.68;;;6.82;;
19189;SDS011;9727;50.200;19.038;2023-09-30T14:40:02;10.23;;;6.63;;
19189;SDS011;9727;50.200;19.038;2023-09-30T14:42:30;11.63;;;6.38;;
19189;SDS011;9727;50.200;19.038;2023-09-30T14:44:57;10.18;;;6.53;;
19189;SDS011;9727;50.200;19.038;2023-09-30T14:47:25;8.88;;;6.30;;